Time;durP1;ratioP1;P1;durP2;ratioP2;P2;SDS_P1;SDS_P2;PMS_P1;PMS_P2;Temp;Humidity;BMP_temperature;BMP_pressure;BME280_temperature;BME280_humidity;BME280_pressure;Samples;Min_cycle;Max_cycle;Signal;HPM_P1;HPM_P2
2022/08/24 00:01:26;;;;;;;69.35;9.77;;;15.80;99.90;;;14.82;100.00;101667.06;4978191;28;20033;-77
2022/08/24 00:03:56;;;;;;;36.13;11.02;;;15.80;99.90;;;14.80;100.00;101666.28;4967319;28;20122;-77
2022/08/24 00:06:23;;;;;;;35.33;12.10;;;15.70;99.90;;;14.81;100.00;101673.28;4985143;28;20081;-76
2022/08/24 00:08:52;;;;;;;13.43;6.60;;;15.80;99.90;;;14.81;100.00;101662.69;4961587;28;20034;-76
2022/08/24 00:11:19;;;;;;;23.25;9.95;;;15.80;99.90;;;14.82;100.00;101667.91;4953681;28;20041;-77
2022/08/24 00:13:45;;;;;;;33.40;10.50;;;15.70;99.90;;;14.83;100.00;101674.94;4969073;28;20076;-77
2022/08/24 00:16:12;;;;;;;20.88;9.52;;;15.80;99.90;;;14.85;100.00;101673.06;4989594;28;20095;-77
2022/08/24 00:18:43;;;;;;;24.52;9.02;;;15.80;99.90;;;14.85;100.00;101673.06;4969022;28;20034;-77
2022/08/24 00:21:10;;;;;;;25.05;10.02;;;15.80;99.90;;;14.89;100.00;101665.81;4955846;28;20050;-77
2022/08/24 00:23:35;;;;;;;28.98;10.18;;;15.90;99.90;;;14.92;100.00;101663.88;4988256;28;20149;-76
2022/08/24 00:26:03;;;;;;;22.65;10.55;;;15.80;99.90;;;14.97;100.00;101664.50;4949953;28;20037;-77
2022/08/24 00:28:33;;;;;;;21.67;10.18;;;15.90;99.90;;;15.00;100.00;101660.84;4960833;28;20560;-76
2022/08/24 00:30:59;;;;;;;22.63;10.20;;;15.90;99.90;;;14.98;100.00;101662.69;4991296;28;20042;-76
2022/08/24 00:33:25;;;;;;;43.22;11.82;;;15.90;99.90;;;14.94;100.00;101655.84;4965186;28;20022;-77
2022/08/24 00:35:51;;;;;;;35.10;11.45;;;15.90;99.90;;;14.88;100.00;101661.44;4938465;28;20364;-76
2022/08/24 00:38:17;;;;;;;26.02;9.68;;;15.80;99.90;;;14.81;100.00;101660.88;4976215;28;20034;-77
2022/08/24 00:40:50;;;;;;;21.05;9.48;;;15.80;99.90;;;14.82;100.00;101662.63;4979548;28;20513;-77
2022/08/24 00:43:24;;;;;;;21.75;10.38;;;15.80;99.90;;;14.76;100.00;101666.41;4984331;28;20481;-77
2022/08/24 00:45:55;;;;;;;18.92;8.95;;;15.80;99.90;;;14.78;100.00;101666.34;4990068;28;20038;-77
2022/08/24 00:48:28;;;;;;;26.83;8.25;;;15.80;99.90;;;14.74;100.00;101668.28;5013176;28;20067;-77
2022/08/24 00:51:03;;;;;;;18.30;8.30;;;15.70;99.90;;;14.74;100.00;101664.78;4946155;28;20041;-77
2022/08/24 00:53:45;;;;;;;21.70;9.73;;;15.70;99.90;;;14.77;100.00;101672.56;4949017;28;20529;-77
2022/08/24 00:56:19;;;;;;;29.25;10.32;;;15.80;99.90;;;14.77;100.00;101673.44;4980801;28;20049;-77
2022/08/24 00:58:50;;;;;;;14.45;8.50;;;15.70;99.90;;;14.76;100.00;101670.88;4991966;28;20067;-77
2022/08/24 01:01:24;;;;;;;35.15;11.55;;;15.70;99.90;;;14.73;100.00;101676.34;4968457;28;20033;-77
2022/08/24 01:03:50;;;;;;;24.70;10.95;;;15.70;99.90;;;14.70;100.00;101676.47;4991586;28;20398;-77
2022/08/24 01:06:17;;;;;;;17.25;9.95;;;15.60;99.90;;;14.66;100.00;101680.19;4989348;28;20038;-77
2022/08/24 01:08:44;;;;;;;15.60;9.63;;;15.60;99.90;;;14.66;100.00;101683.69;4980585;28;20422;-75
2022/08/24 01:11:18;;;;;;;20.67;9.82;;;15.60;99.90;;;14.66;100.00;101677.53;4953878;28;20038;-77
2022/08/24 01:13:48;;;;;;;26.10;10.23;;;15.60;99.90;;;14.69;100.00;101686.22;4942669;28;1105772;-77
2022/08/24 01:18:48;;;;;;;19.40;10.27;;;15.70;99.90;;;14.70;100.00;101676.47;4977157;28;20046;-77
2022/08/24 01:19:34;;;;;;;18.20;10.63;;;15.70;99.90;;;14.77;100.00;101675.22;4985832;28;20033;-77
2022/08/24 01:22:45;;;;;;;17.85;9.05;;;15.70;99.90;;;14.84;100.00;101681.97;4928088;28;20660;-77
2022/08/24 01:25:11;;;;;;;15.85;7.07;;;15.80;99.90;;;14.83;100.00;101677.56;4967252;28;20542;-77
2022/08/24 01:27:38;;;;;;;10.85;6.25;;;15.80;99.90;;;14.82;100.00;101677.69;5013064;28;20037;-76
2022/08/24 01:30:11;;;;;;;14.90;6.00;;;15.70;99.90;;;14.81;100.00;101687.41;4978066;28;20044;-77
2022/08/24 01:32:38;;;;;;;17.10;8.10;;;15.70;99.90;;;14.80;100.00;101687.50;4964693;28;20044;-77
2022/08/24 01:35:04;;;;;;;21.77;9.98;;;15.70;99.90;;;14.77;100.00;101680.53;4983001;28;20029;-77
2022/08/24 01:37:31;;;;;;;14.68;7.00;;;15.70;99.90;;;14.75;100.00;101677.09;4971987;28;20130;-77
2022/08/24 01:40:06;;;;;;;22.13;7.88;;;15.70;99.90;;;14.69;100.00;101678.25;4981030;28;20042;-76
2022/08/24 01:42:33;;;;;;;7.18;4.13;;;15.60;99.90;;;14.64;100.00;101672.31;4975199;28;20050;-77
2022/08/24 01:45:00;;;;;;;6.38;4.60;;;15.60;99.90;;;14.67;100.00;101682.78;4970471;28;20929;-77
2022/08/24 01:47:28;;;;;;;19.27;7.57;;;15.60;99.90;;;14.69;100.00;101674.75;4960580;28;20049;-77
2022/08/24 01:49:54;;;;;;;12.27;5.78;;;15.60;99.90;;;14.71;100.00;101676.41;4955331;28;20032;-77
2022/08/24 01:52:24;;;;;;;20.23;9.35;;;15.60;99.90;;;14.74;100.00;101675.38;4972454;28;20034;-76
2022/08/24 01:54:51;;;;;;;13.88;6.38;;;15.60;99.90;;;14.72;100.00;101678.09;4998553;28;20033;-77
2022/08/24 01:57:27;;;;;;;11.73;6.57;;;15.60;99.90;;;14.68;100.00;101670.38;4988145;28;20037;-77
2022/08/24 01:59:53;;;;;;;16.98;5.30;;;15.60;99.90;;;14.70;100.00;101676.47;4958378;28;20607;-77
2022/08/24 02:02:26;;;;;;;12.77;5.00;;;15.70;99.90;;;14.73;100.00;101673.69;4962557;28;20033;-77
2022/08/24 02:04:51;;;;;;;15.10;6.03;;;15.70;99.90;;;14.77;100.00;101670.81;4988982;28;20128;-77
2022/08/24 02:07:18;;;;;;;15.93;5.88;;;15.70;99.90;;;14.83;100.00;101677.56;4980982;28;21583;-77
2022/08/24 02:09:45;;;;;;;19.35;6.93;;;15.70;99.90;;;14.89;100.00;101679.06;4947971;28;20579;-76
2022/08/24 02:12:12;;;;;;;15.85;6.82;;;15.80;99.90;;;14.92;100.00;101686.88;4950234;28;20457;-77
2022/08/24 02:14:43;;;;;;;17.48;7.15;;;15.80;99.90;;;14.92;100.00;101674.50;4985494;28;20042;-77
2022/08/24 02:17:09;;;;;;;16.05;5.97;;;15.80;99.90;;;14.88;100.00;101666.75;4961537;28;20411;-77
2022/08/24 02:19:35;;;;;;;17.45;6.72;;;15.80;99.90;;;14.83;100.00;101672.28;4963024;28;20034;-77
2022/08/24 02:22:02;;;;;;;12.48;5.13;;;15.80;99.90;;;14.80;100.00;101672.44;4974572;28;20041;-77
2022/08/24 02:24:29;;;;;;;11.50;4.68;;;15.70;99.90;;;14.78;100.00;101671.66;4972402;28;20035;-77
2022/08/24 02:26:57;;;;;;;11.52;5.25;;;15.70;99.90;;;14.76;100.00;101676.16;4966973;28;20410;-76
2022/08/24 02:29:24;;;;;;;13.80;6.50;;;15.70;99.90;;;14.74;100.00;101670.94;4954059;28;20042;-77
2022/08/24 02:39:19;;;;;;;26.00;8.68;;;15.70;99.90;;;14.74;100.00;101672.72;4999763;28;20041;-77
2022/08/24 03:03:51;;;;;;;18.02;9.38;;;16.00;99.90;;;15.15;100.00;101685.72;5002350;28;20049;-77
2022/08/24 03:06:18;;;;;;;38.60;11.65;;;16.10;99.90;;;15.18;100.00;101682.91;4997752;28;20038;-76
2022/08/24 03:08:45;;;;;;;14.70;7.47;;;16.10;99.90;;;15.19;100.00;101682.00;5001508;28;20498;-77
2022/08/24 03:11:55;;;;;;;14.07;7.90;;;16.10;99.90;;;15.13;100.00;101683.16;5018452;22;20183;-76
2022/08/24 03:15:32;;;;;;;19.30;8.50;;;16.00;99.90;;;15.08;100.00;101686.97;5038203;28;20025;-76
2022/08/24 03:19:28;;;;;;;;;;;;;;;;;;;;;
2022/08/24 03:23:16;;;;;;;23.50;8.32;;;15.90;99.90;;;14.94;100.00;101688.50;5024810;28;20040;-77
2022/08/24 03:26:35;;;;;;;18.40;8.68;;;15.90;99.90;;;14.88;100.00;101686.19;5019784;28;20115;-77
2022/08/24 03:29:26;;;;;;;27.77;9.65;;;15.80;99.90;;;14.90;100.00;101692.28;5038039;28;20038;-77
2022/08/24 03:32:56;;;;;;;19.02;8.02;;;15.80;99.90;;;14.88;100.00;101694.13;5020889;28;20418;-77
2022/08/24 03:36:28;;;;;;;18.13;8.73;;;15.80;99.90;;;14.82;100.00;101686.47;4981250;28;20037;-77
2022/08/24 03:39:47;;;;;;;;;;;;;;;;;;;;;
2022/08/24 03:42:17;;;;;;;14.95;7.70;;;15.80;99.90;;;14.82;100.00;101688.28;5022645;28;20048;-77
2022/08/24 03:48:49;;;;;;;;;;;;;;;;;;;;;
2022/08/24 03:54:35;;;;;;;24.50;8.50;;;15.70;99.90;;;14.81;100.00;101687.41;5021023;28;20502;-77
2022/08/24 03:58:45;;;;;;;15.13;7.25;;;15.70;99.90;;;14.81;100.00;101684.75;5024762;28;20033;-77
2022/08/24 04:04:08;;;;;;;31.98;10.52;;;;;;;14.88;100.00;101682.66;4869084;29;20562;-78
2022/08/24 04:07:30;;;;;;;31.67;10.68;;;15.80;99.90;;;14.93;100.00;101697.41;4932377;29;20043;-78
2022/08/24 04:16:56;;;;;;;17.67;6.55;;;;;;;15.03;100.00;101697.81;5030692;28;20104;-78
2022/08/24 04:20:27;;;;;;;16.70;7.78;;;15.90;99.90;;;15.01;100.00;101691.75;5029200;28;20037;-77
2022/08/24 04:27:18;;;;;;;;;;;;;;;;;;;;;
2022/08/24 04:33:42;;;;;;;;;;;;;;;;;;;;;
2022/08/24 04:36:49;;;;;;;23.20;9.38;;;16.30;99.90;;;15.52;100.00;101695.31;4986330;28;20030;-78
2022/08/24 04:39:46;;;;;;;20.85;8.40;;;;;;;15.66;100.00;101697.25;5063485;28;20021;-77
2022/08/24 04:42:56;;;;;;;;;;;;;;;;;;;;;
2022/08/24 04:46:28;;;;;;;19.65;8.50;;;16.60;99.90;;;15.93;100.00;101705.56;4977547;28;20820;-77
2022/08/24 04:50:57;;;;;;;;;;;;;;;;;;;;;
2022/08/24 04:54:04;;;;;;;26.60;8.05;;;17.30;99.90;;;17.65;100.00;101721.56;5006824;28;20026;-77
2022/08/24 04:57:26;;;;;;;23.10;8.15;;;19.10;99.90;;;21.21;100.00;101715.22;4944159;28;20106;-77
2022/08/24 05:00:27;;;;;;;22.30;7.75;;;20.40;99.90;;;23.05;87.93;101728.44;4919504;29;20054;-77
2022/08/24 05:03:06;;;;;;;16.67;6.57;;;21.70;99.90;;;25.01;76.35;101734.56;4904086;29;20048;-77
2022/08/24 05:06:22;;;;;;;;;;;;;;;;;;;;;
2022/08/24 05:09:57;;;;;;;14.48;4.63;;;24.40;99.90;;;28.77;62.71;101750.25;4911347;29;20504;-77
2022/08/24 05:12:37;;;;;;;13.48;4.22;;;25.90;99.90;;;29.97;58.80;101756.00;4882056;29;20644;-77
2022/08/24 05:15:34;;;;;;;16.02;4.07;;;;;;;30.71;56.58;101758.41;4909958;28;20078;-77
2022/08/24 05:18:28;;;;;;;;;;;;;;;;;;;;;
2022/08/24 05:21:46;;;;;;;9.90;3.90;;;27.60;99.90;;;30.63;56.23;101769.34;4999097;28;20398;-77
2022/08/24 05:24:57;;;;;;;10.73;3.60;;;28.00;99.90;;;32.09;52.68;101787.38;5005647;28;20464;-77
2022/08/24 05:27:55;;;;;;;10.50;3.38;;;28.50;99.90;;;30.58;53.58;101782.59;5038901;28;20041;-77
2022/08/24 05:35:03;;;;;;;11.43;4.13;;;26.20;99.90;;;24.68;72.73;101784.28;5004834;28;20606;-77
2022/08/24 05:38:16;;;;;;;13.98;4.20;;;24.90;99.90;;;23.64;78.89;101788.84;4999067;28;20816;-77
2022/08/24 05:41:25;;;;;;;16.13;4.30;;;24.30;99.90;;;24.25;77.65;101790.75;5023725;28;20100;-77
2022/08/24 05:44:25;;;;;;;12.38;3.33;;;24.80;99.90;;;28.96;63.27;101797.03;5000033;28;20049;-77
2022/08/24 05:47:36;;;;;;;14.18;3.60;;;26.30;99.90;;;30.38;56.74;101793.91;5041424;28;20090;-77
2022/08/24 05:51:01;;;;;;;;;;;;;;;;;;;;;
2022/08/24 05:53:55;;;;;;;10.80;2.90;;;;;;;33.16;51.40;101796.88;5037332;28;20537;-77
2022/08/24 06:00:20;;;;;;;;;;;;;;;;;;;;;
2022/08/24 06:03:35;;;;;;;12.48;2.70;;;30.60;99.90;;;34.81;47.09;101826.34;4969024;28;20046;-77
2022/08/24 06:13:55;;;;;;;14.25;3.40;;;28.90;99.90;;;30.20;56.40;101813.13;5040642;28;20037;-77
2022/08/24 06:17:25;;;;;;;9.88;2.90;;;28.80;99.90;;;30.46;56.61;101818.31;5038501;28;20029;-78
2022/08/24 06:23:50;;;;;;;9.75;2.70;;;29.80;99.90;;;31.39;54.20;101824.75;4999603;28;20048;-77
2022/08/24 06:29:56;;;;;;;13.50;2.05;;;28.70;99.90;;;28.19;62.08;101822.28;5061682;28;20599;-78
2022/08/24 06:32:38;;;;;;;10.05;2.08;;;27.80;99.90;;;27.93;64.39;101821.47;5041941;28;20834;-77
2022/08/24 06:35:07;;;;;;;8.65;2.03;;;27.20;99.90;;;26.50;69.69;101816.75;5042804;28;20071;-77
2022/08/24 06:38:15;;;;;;;9.07;2.33;;;;;;;26.62;71.62;101815.59;5060460;28;20033;-77
2022/08/24 06:41:25;;;;;;;7.75;2.40;;;26.30;99.90;;;26.49;70.03;101815.91;5044256;28;20397;-78
2022/08/24 06:44:06;;;;;;;5.55;1.85;;;26.60;99.90;;;28.36;62.43;101820.53;5030770;28;20049;-78
2022/08/24 06:49:58;;;;;;;6.00;2.42;;;29.40;99.90;;;32.08;52.51;101819.22;4986071;28;20065;-77
2022/08/24 06:53:26;;;;;;;10.27;2.08;;;30.50;99.90;;;32.57;51.20;101814.22;4967100;28;20047;-77
2022/08/24 06:56:10;;;;;;;7.07;1.75;;;31.50;99.90;;;34.35;49.75;101823.44;4960460;28;20050;-78
2022/08/24 06:58:43;;;;;;;9.77;2.33;;;32.40;99.90;;;33.48;49.88;101825.53;5050293;28;20041;-78
2022/08/24 07:04:27;;;;;;;9.48;2.28;;;31.30;99.90;;;30.21;56.51;101838.41;5054559;28;20052;-78
2022/08/24 07:07:19;;;;;;;8.98;2.47;;;30.20;99.90;;;28.27;59.71;101832.31;5046823;28;20033;-78
2022/08/24 07:09:55;;;;;;;7.43;2.75;;;29.00;99.90;;;27.81;62.14;101834.34;5024857;28;20051;-78
2022/08/24 07:12:52;;;;;;;8.55;2.67;;;28.30;99.90;;;27.24;64.99;101833.88;5047358;28;20100;-77
2022/08/24 07:15:56;;;;;;;7.32;2.17;;;27.70;99.90;;;26.35;67.53;101841.56;5047296;28;20047;-78
2022/08/24 07:18:36;;;;;;;8.13;2.55;;;26.90;99.90;;;26.10;69.46;101832.28;5041462;28;20028;-78
2022/08/24 07:21:07;;;;;;;9.80;2.28;;;26.90;99.90;;;27.42;65.57;101837.44;5057910;28;20029;-78
2022/08/24 07:23:33;;;;;;;8.32;2.38;;;27.20;99.90;;;27.11;65.40;101829.66;5038452;28;20088;-77
2022/08/24 07:26:14;;;;;;;6.70;2.58;;;27.20;99.90;;;26.27;67.85;101825.25;5053040;28;20045;-78
2022/08/24 07:28:40;;;;;;;8.73;2.67;;;26.80;99.90;;;25.78;70.23;101832.59;5041141;28;20032;-77
2022/08/24 07:31:08;;;;;;;10.95;2.67;;;26.60;99.90;;;25.77;70.41;101826.34;5062546;28;20029;-77
2022/08/24 07:33:38;;;;;;;9.73;2.67;;;26.30;99.90;;;25.45;71.45;101832.06;5067798;28;20028;-76
2022/08/24 07:36:04;;;;;;;7.00;2.50;;;26.10;99.90;;;25.24;72.75;101834.88;5063353;28;20024;-77
2022/08/24 07:38:30;;;;;;;7.95;2.13;;;26.00;99.90;;;25.22;73.09;101825.22;5053528;28;20025;-77
2022/08/24 07:40:59;;;;;;;11.77;3.28;;;25.90;99.90;;;25.50;73.08;101835.16;5052401;28;20511;-77
2022/08/24 07:43:30;;;;;;;11.68;2.97;;;25.90;99.90;;;26.24;70.59;101828.25;5047042;28;20073;-77
2022/08/24 07:45:56;;;;;;;8.73;2.53;;;26.70;99.90;;;27.76;65.99;101831.28;5047241;28;20030;-77
2022/08/24 07:48:22;;;;;;;4.20;2.35;;;28.10;99.90;;;29.80;59.69;101822.22;5063589;28;20036;-77
2022/08/24 07:50:47;;;;;;;12.10;2.60;;;29.50;99.90;;;30.56;56.29;101831.72;5067468;28;20032;-77
2022/08/24 07:53:13;;;;;;;11.13;2.75;;;30.00;99.90;;;29.14;58.47;101816.75;5052512;28;20098;-77
2022/08/24 07:55:39;;;;;;;12.57;2.42;;;29.70;99.90;;;28.55;60.39;101837.56;5062134;28;20504;-77
2022/08/24 07:58:05;;;;;;;6.32;2.30;;;29.20;99.90;;;28.61;61.22;101842.31;5063902;28;20036;-77
2022/08/24 08:00:31;;;;;;;11.45;2.53;;;29.50;99.90;;;29.45;58.83;101835.09;5053285;28;20037;-77
2022/08/24 08:02:57;;;;;;;6.13;2.35;;;29.40;99.90;;;28.38;61.88;101842.88;5038080;28;20408;-77
2022/08/24 08:05:23;;;;;;;8.57;2.33;;;29.10;99.90;;;28.21;61.83;101844.66;5063318;28;20523;-78
2022/08/24 08:07:51;;;;;;;9.95;2.70;;;28.80;99.90;;;27.33;63.20;101835.66;5050912;28;20032;-78
2022/08/24 08:10:17;;;;;;;6.45;2.20;;;28.30;99.90;;;26.85;65.30;101836.81;5063248;28;20108;-77
2022/08/24 08:12:43;;;;;;;10.20;2.70;;;27.80;99.90;;;26.75;65.55;101842.28;5063352;28;20655;-78
2022/08/24 08:15:13;;;;;;;5.63;2.60;;;27.40;99.90;;;26.52;66.35;101845.34;5045663;28;20059;-77
2022/08/24 08:17:39;;;;;;;9.50;2.42;;;27.50;99.90;;;27.64;63.91;101846.06;5047417;28;20438;-77
2022/08/24 08:20:07;;;;;;;9.27;2.70;;;27.60;99.90;;;27.24;63.84;101844.72;5069642;28;20086;-77
2022/08/24 08:25:20;;;;;;;8.65;2.85;;;27.30;99.90;;;26.43;66.18;101846.22;5061147;28;20044;-77
2022/08/24 08:27:46;;;;;;;8.73;2.67;;;27.10;99.90;;;26.19;68.19;101846.72;5047161;28;20539;-78
2022/08/24 08:30:12;;;;;;;12.48;2.72;;;26.80;99.90;;;25.80;69.38;101846.78;5048718;28;20026;-78
2022/08/24 08:32:38;;;;;;;8.63;2.67;;;26.40;99.90;;;25.60;70.86;101847.81;5055034;28;20029;-77
2022/08/24 08:35:05;;;;;;;6.63;2.60;;;26.20;99.90;;;25.55;70.70;101849.09;5068518;28;20039;-76
2022/08/24 08:37:31;;;;;;;8.80;2.72;;;26.00;99.90;;;25.53;69.68;101839.44;5054888;28;20032;-76
2022/08/24 08:39:57;;;;;;;7.32;2.67;;;26.00;99.90;;;26.59;68.53;101848.34;5063491;28;20021;-78
2022/08/24 08:43:26;;;;;;;12.65;2.67;;;26.70;99.90;;;26.90;65.36;101845.31;5054501;28;20032;-78
2022/08/24 08:46:44;;;;;;;6.28;2.22;;;27.20;99.90;;;26.99;65.01;101850.66;4957864;28;20042;-77
2022/08/24 08:49:27;;;;;;;6.65;2.30;;;27.20;99.90;;;26.85;65.16;101843.06;4979604;28;20075;-77
2022/08/24 08:52:34;;;;;;;5.63;2.45;;;27.10;99.90;;;26.25;66.68;101846.16;5045962;28;20044;-77
2022/08/24 08:55:41;;;;;;;11.55;3.00;;;26.70;99.90;;;25.91;67.97;101843.94;5051524;28;20465;-78
2022/08/24 08:58:53;;;;;;;5.80;2.55;;;26.30;99.90;;;25.34;68.57;101835.75;5060048;28;20033;-77
2022/08/24 09:01:34;;;;;;;11.98;2.92;;;26.00;99.90;;;25.25;69.46;101839.28;5045499;28;20508;-77
2022/08/24 09:04:46;;;;;;;8.68;2.63;;;25.80;99.90;;;25.30;70.21;101836.16;5044833;28;20442;-78
2022/08/24 09:07:45;;;;;;;5.32;2.30;;;25.90;99.90;;;25.90;70.81;101834.16;5046331;28;20056;-77
2022/08/24 09:10:55;;;;;;;7.05;2.60;;;26.30;99.90;;;26.42;68.85;101838.28;5060020;28;20040;-77
2022/08/24 09:13:29;;;;;;;13.35;2.88;;;26.80;99.90;;;26.65;69.70;101841.47;5065332;28;20063;-78
2022/08/24 09:16:14;;;;;;;6.40;2.40;;;27.00;99.90;;;26.42;67.29;101835.59;5047189;28;20493;-77
2022/08/24 09:18:52;;;;;;;7.53;2.63;;;26.80;99.90;;;26.17;67.05;101833.38;5030208;28;20045;-77
2022/08/24 09:21:58;;;;;;;5.90;2.28;;;26.70;99.90;;;25.64;68.85;101830.31;5060936;28;20496;-77
2022/08/24 09:24:33;;;;;;;6.00;2.65;;;26.50;99.90;;;25.82;69.23;101835.88;5047085;28;20675;-77
2022/08/24 09:27:20;;;;;;;12.25;3.28;;;26.20;99.90;;;25.29;70.05;101826.38;5044846;28;20056;-76
2022/08/24 09:30:00;;;;;;;;;;;26.20;99.90;;;25.27;71.45;101831.91;5047654;28;20037;-78
2022/08/24 09:33:08;;;;;;;9.15;2.53;;;25.90;99.90;;;25.31;72.57;101830.66;5046896;28;19909;-78
2022/08/24 09:35:40;;;;;;;;;;;25.90;99.90;;;25.08;73.67;101835.41;5042980;28;20083;-78
2022/08/24 09:38:46;;;;;;;9.90;2.90;;;25.70;99.90;;;25.21;72.67;101837.03;5062405;28;19973;-78
2022/08/24 09:42:09;;;;;;;9.73;3.00;;;25.60;99.90;;;24.77;74.98;101837.31;5046064;28;20536;-78
2022/08/24 09:44:55;;;;;;;13.20;2.53;;;25.40;99.90;;;24.83;74.36;101833.22;5043977;28;20487;-76
2022/08/24 09:47:33;;;;;;;11.38;2.70;;;25.30;99.90;;;24.57;74.35;101828.31;5045990;28;20025;-77
2022/08/24 09:50:31;;;;;;;9.60;2.80;;;25.20;99.90;;;24.52;75.14;101839.50;5060253;28;20033;-77
2022/08/24 09:53:39;;;;;;;7.18;2.60;;;25.30;99.90;;;24.95;75.88;101840.22;5060900;28;20745;-76
2022/08/24 09:56:27;;;;;;;7.32;2.80;;;25.40;99.90;;;24.83;74.08;101836.75;5046884;28;20045;-78
2022/08/24 09:59:28;;;;;;;7.93;2.65;;;25.40;99.90;;;24.70;74.12;101828.94;5060363;28;20513;-76
2022/08/24 10:02:27;;;;;;;8.85;2.75;;;25.30;99.90;;;24.67;75.02;101825.69;5058363;28;20531;-77
2022/08/24 10:05:55;;;;;;;9.13;2.80;;;25.20;99.90;;;24.30;74.85;101834.28;5043971;28;20783;-77
2022/08/24 10:09:20;;;;;;;9.13;2.58;;;25.10;99.90;;;24.30;76.11;101835.13;5044929;28;20033;-78
2022/08/24 10:12:31;;;;;;;10.55;2.88;;;25.00;99.90;;;24.52;76.94;101831.44;5044610;28;20032;-76
2022/08/24 10:15:26;;;;;;;6.13;2.45;;;25.00;99.90;;;24.46;76.51;101836.47;5065186;28;20036;-78
2022/08/24 10:18:30;;;;;;;10.90;2.65;;;25.10;99.90;;;24.58;76.35;101834.53;5050824;28;20026;-77
2022/08/24 10:21:07;;;;;;;9.18;2.30;;;25.10;99.90;;;24.54;76.47;101837.53;5063086;28;20036;-80
2022/08/24 10:24:16;;;;;;;7.22;2.67;;;25.10;99.90;;;24.54;75.18;101828.59;5047317;28;20029;-80
2022/08/24 10:27:20;;;;;;;8.30;2.20;;;25.10;99.90;;;24.56;75.87;101824.78;5051123;28;20086;-82
2022/08/24 10:30:08;;;;;;;5.82;2.70;;;25.10;99.90;;;24.39;75.85;101827.25;4988335;28;20030;-78
2022/08/24 10:33:25;;;;;;;7.97;2.65;;;25.00;99.90;;;24.39;75.58;101822.69;5043034;28;20119;-78
2022/08/24 10:36:29;;;;;;;7.43;2.85;;;25.00;99.90;;;24.39;75.57;101821.84;4976761;28;20070;-78
2022/08/24 10:46:11;;;;;;;9.18;2.40;;;25.50;99.90;;;24.98;72.34;101824.59;5057152;28;20083;-77
2022/08/24 10:48:59;;;;;;;7.80;2.30;;;25.50;99.90;;;24.95;74.37;101818.66;5043894;28;20033;-77
2022/08/24 10:52:05;;;;;;;4.63;2.33;;;25.60;99.90;;;25.34;73.95;101818.72;5052977;28;20082;-77
2022/08/24 10:54:38;;;;;;;8.32;2.63;;;25.80;99.90;;;25.45;72.63;101825.81;5042117;28;20083;-76
2022/08/24 10:57:42;;;;;;;7.07;2.42;;;25.90;99.90;;;25.49;72.62;101822.69;5053008;28;20025;-77
2022/08/24 11:00:17;;;;;;;4.40;2.25;;;26.00;99.90;;;25.50;72.25;101827.06;5044089;28;20041;-77
2022/08/24 11:02:50;;;;;;;9.27;2.40;;;26.00;99.90;;;25.45;72.31;101833.91;5036477;28;20083;-77
2022/08/24 11:05:35;;;;;;;8.68;2.50;;;26.10;99.90;;;25.63;71.65;101831.34;5058652;28;20056;-77
2022/08/24 11:08:19;;;;;;;10.65;2.50;;;26.20;99.90;;;25.68;71.77;101835.31;5052674;28;20068;-77
2022/08/24 11:11:05;;;;;;;11.93;2.55;;;26.00;99.90;;;25.27;71.48;101822.94;5050962;28;20033;-78
2022/08/24 11:13:36;;;;;;;9.68;2.90;;;25.80;99.90;;;24.96;72.91;101828.44;5043045;28;20037;-78
2022/08/24 11:16:09;;;;;;;9.55;2.60;;;25.60;99.90;;;24.89;72.46;101820.03;5045889;28;20071;-77
2022/08/24 11:19:06;;;;;;;7.22;2.58;;;25.40;99.90;;;24.80;73.02;101822.72;5066548;28;20045;-77
2022/08/24 11:21:43;;;;;;;;;;;25.50;99.90;;;24.56;72.66;101823.94;5048935;28;20033;-78
2022/08/24 11:24:17;;;;;;;7.23;2.77;;;25.30;99.90;;;24.85;73.04;101828.56;5066312;28;19938;-76
2022/08/24 11:27:03;;;;;;;10.90;2.67;;;25.30;99.90;;;24.65;73.72;101827.66;5049547;28;20348;-76
2022/08/24 11:29:51;;;;;;;15.57;3.10;;;25.20;99.90;;;24.57;74.72;101828.31;5057404;28;20021;-77
2022/08/24 11:32:44;;;;;;;11.68;2.90;;;25.20;99.90;;;24.74;74.27;101834.91;5047656;28;20029;-76
2022/08/24 11:35:20;;;;;;;6.63;2.53;;;25.30;99.90;;;24.67;74.39;101829.22;5043106;28;20041;-79
2022/08/24 11:37:51;;;;;;;8.82;2.97;;;25.20;99.90;;;24.39;75.35;101843.38;5034768;28;20037;-79
2022/08/24 11:40:26;;;;;;;6.80;2.75;;;25.10;99.90;;;24.19;74.95;101835.22;5050205;28;20029;-79
2022/08/24 11:43:17;;;;;;;8.43;3.00;;;24.90;99.90;;;24.10;74.62;101833.31;5049506;28;20084;-77
2022/08/24 11:46:45;;;;;;;5.53;2.50;;;24.70;99.90;;;23.95;75.61;101846.25;5062658;28;20939;-78
2022/08/24 11:49:32;;;;;;;8.23;2.53;;;24.60;99.90;;;23.90;76.41;101853.88;5048690;28;20036;-77
2022/08/24 11:52:29;;;;;;;10.80;2.80;;;24.60;99.90;;;24.00;76.76;101841.34;5046428;28;20028;-77
2022/08/24 11:55:17;;;;;;;5.07;2.45;;;24.70;99.90;;;24.11;76.08;101843.94;5060676;28;20057;-78
2022/08/24 11:58:07;;;;;;;7.72;2.80;;;24.60;99.90;;;23.69;77.55;101830.50;5048995;28;20029;-78
2022/08/24 12:01:28;;;;;;;7.35;2.90;;;24.50;99.90;;;23.77;78.90;101837.91;5047748;28;20065;-77
2022/08/24 12:05:10;;;;;;;11.55;3.03;;;24.60;99.90;;;24.35;78.31;101843.63;5020750;28;20104;-77
2022/08/24 12:08:00;;;;;;;8.35;2.58;;;25.00;99.90;;;24.67;76.03;101839.97;5034213;28;20064;-76
2022/08/24 12:10:37;;;;;;;10.32;2.75;;;25.00;99.90;;;24.62;74.65;101833.28;5047027;28;20032;-76
2022/08/24 12:14:01;;;;;;;6.32;2.03;;;25.10;99.90;;;24.42;74.00;101843.09;5044955;28;20040;-77
2022/08/24 12:16:51;;;;;;;6.57;2.55;;;25.00;99.90;;;24.19;76.13;101835.22;4973760;28;20042;-76
2022/08/24 12:19:29;;;;;;;6.40;2.55;;;24.90;99.90;;;24.33;76.19;101840.22;5046850;28;20041;-77
2022/08/24 12:22:00;;;;;;;9.50;2.55;;;24.90;99.90;;;24.28;76.30;101834.41;5048222;28;20028;-76
2022/08/24 12:24:49;;;;;;;9.07;2.63;;;25.00;99.90;;;24.51;75.85;101836.94;5063925;28;20060;-76
2022/08/24 12:27:33;;;;;;;7.90;2.47;;;25.10;99.90;;;24.68;74.63;101838.97;5056248;28;20100;-76
2022/08/24 12:30:15;;;;;;;9.55;2.70;;;25.20;99.90;;;24.84;72.65;101829.53;5059256;28;20037;-75
2022/08/24 12:32:42;;;;;;;6.38;2.20;;;25.20;99.90;;;24.65;72.16;101835.72;5047634;28;20020;-77
2022/08/24 12:35:27;;;;;;;15.60;2.92;;;25.10;99.90;;;24.43;72.02;101845.66;5048536;28;20505;-75
2022/08/24 12:38:32;;;;;;;8.90;2.53;;;25.00;99.90;;;24.45;74.04;101835.63;5049770;28;20017;-77
2022/08/24 12:41:32;;;;;;;9.15;2.45;;;25.10;99.90;;;24.50;73.09;101849.56;5047782;28;20021;-76
2022/08/24 12:44:02;;;;;;;7.47;2.58;;;25.10;99.90;;;24.54;71.96;101831.28;5058396;28;20102;-76
2022/08/24 12:46:28;;;;;;;10.32;2.78;;;25.00;99.90;;;24.47;72.58;101843.53;5046955;28;20607;-76
2022/08/24 12:49:35;;;;;;;6.28;2.00;;;25.10;99.90;;;24.69;71.17;101839.84;5065196;28;20033;-77
2022/08/24 12:52:40;;;;;;;8.75;2.58;;;25.30;99.90;;;25.07;72.51;101846.31;5046975;28;20967;-77
2022/08/24 12:55:27;;;;;;;9.18;2.47;;;25.50;99.90;;;25.01;72.51;101855.81;5046494;28;20409;-76
2022/08/24 12:58:08;;;;;;;;;;;25.50;99.90;;;24.56;73.12;101840.09;5049970;28;20033;-77
2022/08/24 13:00:45;;;;;;;11.95;2.50;;;25.10;99.90;;;24.33;73.81;101851.00;5044119;28;19912;-76
2022/08/24 13:03:36;;;;;;;7.10;2.20;;;25.10;99.90;;;24.36;74.30;101845.34;5034392;28;20520;-77
2022/08/24 13:06:16;;;;;;;6.05;2.38;;;25.00;99.90;;;24.22;73.69;101852.94;5043956;28;20502;-76
2022/08/24 13:08:47;;;;;;;6.45;2.33;;;24.80;99.90;;;23.81;74.87;101844.75;5064289;28;20029;-76
2022/08/24 13:11:34;;;;;;;6.43;2.33;;;24.70;99.90;;;23.68;74.84;101838.69;5049113;28;20071;-75
2022/08/24 13:14:08;;;;;;;;;;;24.60;99.90;;;23.77;76.08;101839.75;5027058;28;20033;-75
2022/08/24 13:16:55;;;;;;;13.13;3.22;;;24.60;99.90;;;23.99;76.11;101839.63;5061436;28;19908;-78
2022/08/24 13:19:32;;;;;;;10.77;2.45;;;24.70;99.90;;;24.19;76.24;101837.91;5045844;28;20024;-77